Time;durP1;ratioP1;P1;durP2;ratioP2;P2;SDS_P1;SDS_P2;PMS_P1;PMS_P2;Temp;Humidity;BMP_temperature;BMP_pressure;BME280_temperature;BME280_humidity;BME280_pressure;Samples;Min_cycle;Max_cycle;Signal;HPM_P1;HPM_P2
2022/08/13 00:00:35;;;;;;;7.07;2.40;;;;;;;;;;5080276;28;20206;-72
2022/08/13 00:03:02;;;;;;;3.77;2.23;;;;;;;;;;5081026;28;20202;-72
2022/08/13 00:05:31;;;;;;;7.13;2.10;;;;;;;;;;5081960;28;20201;-72
2022/08/13 00:07:58;;;;;;;5.67;2.60;;;;;;;;;;5081472;28;20226;-72
2022/08/13 00:10:27;;;;;;;6.27;2.40;;;;;;;;;;5081273;28;20202;-72
2022/08/13 00:12:57;;;;;;;4.87;2.40;;;;;;;;;;5081212;28;20285;-72
2022/08/13 00:15:28;;;;;;;5.60;2.47;;;;;;;;;;5078028;28;20232;-73
2022/08/13 00:17:57;;;;;;;4.23;2.50;;;;;;;;;;5077490;28;20209;-72
2022/08/13 00:20:25;;;;;;;8.43;2.70;;;;;;;;;;5077354;28;20202;-72
2022/08/13 00:22:55;;;;;;;7.20;3.00;;;;;;;;;;5080673;28;20198;-72
2022/08/13 00:25:23;;;;;;;6.07;3.00;;;;;;;;;;5081451;28;20208;-72
2022/08/13 00:27:56;;;;;;;4.87;2.67;;;;;;;;;;5080048;28;20691;-72
2022/08/13 00:30:25;;;;;;;4.50;2.63;;;;;;;;;;5075792;28;20214;-72
2022/08/13 00:32:52;;;;;;;4.00;2.63;;;;;;;;;;5081805;28;20582;-72
2022/08/13 00:35:19;;;;;;;3.60;2.73;;;;;;;;;;5078137;28;20255;-72
2022/08/13 00:37:48;;;;;;;5.93;2.50;;;;;;;;;;5078395;28;20222;-72
2022/08/13 00:40:18;;;;;;;5.97;2.50;;;;;;;;;;5081956;28;20296;-72
2022/08/13 00:42:45;;;;;;;5.83;2.63;;;;;;;;;;5081564;28;20213;-72
2022/08/13 00:45:12;;;;;;;4.83;2.30;;;;;;;;;;5079529;28;20205;-72
2022/08/13 00:50:26;;;;;;;7.60;2.77;;;;;;;;;;5080653;28;20302;-72
2022/08/13 00:52:54;;;;;;;3.40;2.50;;;;;;;;;;5078213;28;20328;-72
2022/08/13 00:55:23;;;;;;;5.00;2.97;;;;;;;;;;5080481;28;20209;-72
2022/08/13 00:57:51;;;;;;;4.57;3.10;;;;;;;;;;5080168;28;20214;-72
2022/08/13 01:00:19;;;;;;;10.63;2.70;;;;;;;;;;5079958;28;20684;-72
2022/08/13 01:02:47;;;;;;;5.00;3.10;;;;;;;;;;5083070;28;20197;-72
2022/08/13 01:05:14;;;;;;;4.83;2.90;;;;;;;;;;5078652;28;20202;-72
2022/08/13 01:07:43;;;;;;;4.83;3.10;;;;;;;;;;5078589;28;20228;-72
2022/08/13 01:10:10;;;;;;;6.17;3.30;;;;;;;;;;5081660;28;20283;-72
2022/08/13 01:12:39;;;;;;;4.60;3.27;;;;;;;;;;5075772;28;20236;-72
2022/08/13 01:15:11;;;;;;;7.73;3.37;;;;;;;;;;5073609;28;20209;-72
2022/08/13 01:17:39;;;;;;;5.40;2.97;;;;;;;;;;5078950;28;20301;-72
2022/08/13 01:20:09;;;;;;;5.33;3.30;;;;;;;;;;5081080;28;20266;-72
2022/08/13 01:22:38;;;;;;;4.40;3.10;;;;;;;;;;5080613;28;21395;-71
2022/08/13 01:25:06;;;;;;;6.07;3.20;;;;;;;;;;5081496;28;20209;-72
2022/08/13 01:27:37;;;;;;;5.13;3.00;;;;;;;;;;5075244;28;20574;-72
2022/08/13 01:30:05;;;;;;;9.53;2.90;;;;;;;;;;5079053;28;20204;-72
2022/08/13 01:32:32;;;;;;;8.63;3.63;;;;;;;;;;5080860;28;20212;-72
2022/08/13 01:35:00;;;;;;;4.83;2.87;;;;;;;;;;5079109;28;20198;-72
2022/08/13 01:37:28;;;;;;;6.90;3.00;;;;;;;;;;5077116;28;20225;-72
2022/08/13 01:39:57;;;;;;;4.20;2.90;;;;;;;;;;5078382;28;20548;-72
2022/08/13 01:42:24;;;;;;;6.00;3.17;;;;;;;;;;5081396;28;20194;-72
2022/08/13 01:44:52;;;;;;;6.80;3.30;;;;;;;;;;5075164;28;20198;-72
2022/08/13 01:52:47;;;;;;;7.47;3.30;;;;;;;;;;5063220;28;20209;-72
2022/08/13 01:55:17;;;;;;;8.27;3.23;;;;;;;;;;5078620;28;20213;-72
2022/08/13 01:57:45;;;;;;;7.40;3.47;;;;;;;;;;5077229;28;20222;-72
2022/08/13 02:00:13;;;;;;;6.13;3.30;;;;;;;;;;5078649;28;20680;-72
2022/08/13 02:02:43;;;;;;;5.60;3.50;;;;;;;;;;5077217;28;20231;-72
2022/08/13 02:05:11;;;;;;;6.20;3.50;;;;;;;;;;5078673;28;20621;-72
2022/08/13 02:07:38;;;;;;;6.87;3.40;;;;;;;;;;5074844;28;20233;-72
2022/08/13 02:10:06;;;;;;;15.27;4.13;;;;;;;;;;5084249;28;20204;-72
2022/08/13 02:12:35;;;;;;;5.33;3.50;;;;;;;;;;5082493;28;20204;-72
2022/08/13 02:15:04;;;;;;;8.10;3.93;;;;;;;;;;5082983;28;20213;-72
2022/08/13 02:17:34;;;;;;;8.40;3.40;;;;;;;;;;5084166;28;20228;-72
2022/08/13 02:20:03;;;;;;;11.03;3.53;;;;;;;;;;5084398;28;20297;-72
2022/08/13 02:22:31;;;;;;;9.87;3.90;;;;;;;;;;5083175;28;20206;-72
2022/08/13 02:24:59;;;;;;;5.73;3.60;;;;;;;;;;5083708;28;20203;-72
2022/08/13 02:27:27;;;;;;;7.87;3.97;;;;;;;;;;5082561;28;20229;-72
2022/08/13 02:29:57;;;;;;;6.27;3.83;;;;;;;;;;5085254;28;20198;-72
2022/08/13 02:32:24;;;;;;;8.83;4.10;;;;;;;;;;5081628;28;20561;-72
2022/08/13 02:34:52;;;;;;;10.27;3.90;;;;;;;;;;5082654;28;20198;-72
2022/08/13 02:37:21;;;;;;;6.97;3.80;;;;;;;;;;5080102;28;20224;-71
2022/08/13 02:39:49;;;;;;;8.47;3.30;;;;;;;;;;5082785;28;20205;-72
2022/08/13 02:42:15;;;;;;;7.63;4.20;;;;;;;;;;5082177;28;20209;-72
2022/08/13 02:44:43;;;;;;;7.20;3.77;;;;;;;;;;5081450;28;20198;-72
2022/08/13 02:47:13;;;;;;;11.97;3.97;;;;;;;;;;5083733;28;20239;-72
2022/08/13 02:49:41;;;;;;;8.93;4.37;;;;;;;;;;5082491;28;20293;-72
2022/08/13 02:52:09;;;;;;;6.23;3.87;;;;;;;;;;5084139;28;20211;-72
2022/08/13 02:54:40;;;;;;;7.10;3.60;;;;;;;;;;5078462;28;20203;-72
2022/08/13 02:57:07;;;;;;;8.50;4.03;;;;;;;;;;5084045;28;20746;-72
2022/08/13 02:59:34;;;;;;;8.07;4.13;;;;;;;;;;5080239;28;20209;-72
2022/08/13 03:02:02;;;;;;;7.43;3.93;;;;;;;;;;5081332;28;20204;-72
2022/08/13 03:04:31;;;;;;;8.83;4.30;;;;;;;;;;5080926;28;20544;-72
2022/08/13 03:06:58;;;;;;;6.80;3.93;;;;;;;;;;5079926;28;20328;-71
2022/08/13 03:09:25;;;;;;;8.47;3.90;;;;;;;;;;5079580;28;20198;-72
2022/08/13 03:11:52;;;;;;;10.70;4.00;;;;;;;;;;5082744;28;20570;-72
2022/08/13 03:14:20;;;;;;;7.37;4.00;;;;;;;;;;5079556;28;20232;-72
2022/08/13 03:16:48;;;;;;;7.10;4.37;;;;;;;;;;5079878;28;20226;-72
2022/08/13 03:19:15;;;;;;;12.00;3.77;;;;;;;;;;5080833;28;20208;-72
2022/08/13 03:21:44;;;;;;;4.57;3.53;;;;;;;;;;5082136;28;20689;-72
2022/08/13 03:24:13;;;;;;;11.53;4.23;;;;;;;;;;5081508;28;20202;-72
2022/08/13 03:26:40;;;;;;;6.57;3.70;;;;;;;;;;5080681;28;20622;-72
2022/08/13 03:29:08;;;;;;;5.23;3.47;;;;;;;;;;5083799;28;20201;-72
2022/08/13 03:31:36;;;;;;;7.20;3.90;;;;;;;;;;5079934;28;20201;-72
2022/08/13 03:34:03;;;;;;;13.37;3.90;;;;;;;;;;5080633;28;20292;-72
2022/08/13 03:36:31;;;;;;;9.70;3.80;;;;;;;;;;5082394;28;20193;-72
2022/08/13 03:38:59;;;;;;;9.57;3.97;;;;;;;;;;5082014;28;20198;-72
2022/08/13 03:41:26;;;;;;;6.97;4.23;;;;;;;;;;5079986;28;20198;-72
2022/08/13 03:43:54;;;;;;;8.97;4.33;;;;;;;;;;5080255;28;20198;-72
2022/08/13 03:46:22;;;;;;;7.07;4.03;;;;;;;;;;5083123;28;20465;-72
2022/08/13 03:48:50;;;;;;;5.87;4.20;;;;;;;;;;5078479;28;20224;-72
2022/08/13 03:51:20;;;;;;;9.53;4.40;;;;;;;;;;5080544;28;20206;-72
2022/08/13 03:53:49;;;;;;;7.13;4.03;;;;;;;;;;5081468;28;21203;-72
2022/08/13 03:56:18;;;;;;;8.70;4.43;;;;;;;;;;5081991;28;20210;-72
2022/08/13 03:58:45;;;;;;;8.67;4.70;;;;;;;;;;5082883;28;20624;-72
2022/08/13 04:01:14;;;;;;;8.03;4.03;;;;;;;;;;5082014;28;20216;-72
2022/08/13 04:03:41;;;;;;;13.17;4.10;;;;;;;;;;5079142;28;20202;-72
2022/08/13 04:06:12;;;;;;;9.20;4.20;;;;;;;;;;5084911;28;20201;-72
2022/08/13 04:08:41;;;;;;;5.93;4.30;;;;;;;;;;5079844;28;20221;-72
2022/08/13 04:11:09;;;;;;;9.03;4.80;;;;;;;;;;5079285;28;20204;-72
2022/08/13 04:13:39;;;;;;;8.83;4.37;;;;;;;;;;5082012;28;20225;-72
2022/08/13 04:16:07;;;;;;;8.97;4.30;;;;;;;;;;5082841;28;20305;-72
2022/08/13 04:18:35;;;;;;;7.37;4.00;;;;;;;;;;5081116;28;20814;-72
2022/08/13 04:21:03;;;;;;;10.53;4.47;;;;;;;;;;5079769;28;20202;-72
2022/08/13 04:23:32;;;;;;;8.87;4.17;;;;;;;;;;5082825;28;20206;-72
2022/08/13 04:25:59;;;;;;;9.07;5.70;;;;;;;;;;5081188;28;20724;-72
2022/08/13 04:28:26;;;;;;;13.33;5.13;;;;;;;;;;5081115;28;20700;-72
2022/08/13 04:30:55;;;;;;;11.37;5.60;;;;;;;;;;5077505;28;20197;-72
2022/08/13 04:33:22;;;;;;;10.00;5.10;;;;;;;;;;5079832;28;20695;-72
2022/08/13 04:35:49;;;;;;;10.43;4.87;;;;;;;;;;5082564;28;20202;-72
2022/08/13 04:38:17;;;;;;;11.73;4.93;;;;;;;;;;5083796;28;20311;-72
2022/08/13 04:40:45;;;;;;;11.83;4.80;;;;;;;;;;5080776;28;20301;-72
2022/08/13 04:43:13;;;;;;;11.40;4.97;;;;;;;;;;5082800;28;20655;-72
2022/08/13 04:45:40;;;;;;;9.13;4.77;;;;;;;;;;5079531;28;20209;-72
2022/08/13 04:48:12;;;;;;;7.50;4.27;;;;;;;;;;5081887;28;20221;-72
2022/08/13 04:50:40;;;;;;;8.93;4.80;;;;;;;;;;5080482;28;20719;-72
2022/08/13 04:53:09;;;;;;;11.50;4.20;;;;;;;;;;5082582;28;20719;-72
2022/08/13 04:55:37;;;;;;;7.23;4.10;;;;;;;;;;5079468;28;20198;-72
2022/08/13 04:58:04;;;;;;;7.47;3.80;;;;;;;;;;5082251;28;20304;-72
2022/08/13 05:00:33;;;;;;;13.73;3.87;;;;;;;;;;5076594;28;20205;-72
2022/08/13 05:03:09;;;;;;;7.63;3.97;;;;;;;;;;5079845;28;20215;-73
2022/08/13 05:05:37;;;;;;;7.27;3.70;;;;;;;;;;5079514;28;20227;-73
2022/08/13 05:08:05;;;;;;;8.40;3.73;;;;;;;;;;5082204;28;20222;-73
2022/08/13 05:10:36;;;;;;;7.87;3.90;;;;;;;;;;5075673;28;20197;-72
2022/08/13 05:13:04;;;;;;;6.10;3.60;;;;;;;;;;5080844;28;20668;-72
2022/08/13 05:15:33;;;;;;;8.67;4.00;;;;;;;;;;5080534;28;20217;-73
2022/08/13 05:18:00;;;;;;;5.80;3.30;;;;;;;;;;5080410;28;20222;-72
2022/08/13 05:20:29;;;;;;;5.87;3.37;;;;;;;;;;5080442;28;20285;-72
2022/08/13 05:22:56;;;;;;;7.37;3.33;;;;;;;;;;5077614;28;20410;-73
2022/08/13 05:25:23;;;;;;;6.97;3.37;;;;;;;;;;5079577;28;20227;-72
2022/08/13 05:27:51;;;;;;;6.83;3.50;;;;;;;;;;5081054;28;20225;-73
2022/08/13 05:30:18;;;;;;;5.50;3.43;;;;;;;;;;5081095;28;20601;-72
2022/08/13 05:32:45;;;;;;;6.67;3.63;;;;;;;;;;5080795;28;20204;-73
2022/08/13 05:35:12;;;;;;;7.03;3.20;;;;;;;;;;5081190;28;20294;-73
2022/08/13 05:37:42;;;;;;;10.33;3.70;;;;;;;;;;5080984;28;20246;-73
2022/08/13 05:40:10;;;;;;;6.87;3.13;;;;;;;;;;5079129;28;20227;-73
2022/08/13 05:42:39;;;;;;;7.33;3.57;;;;;;;;;;5079350;28;20313;-73
2022/08/13 05:45:08;;;;;;;10.30;4.47;;;;;;;;;;5083982;28;20208;-73
2022/08/13 05:47:35;;;;;;;9.07;4.43;;;;;;;;;;5084748;28;20217;-73
2022/08/13 05:50:03;;;;;;;8.73;4.20;;;;;;;;;;5085605;28;20567;-73
2022/08/13 05:52:35;;;;;;;12.40;5.17;;;;;;;;;;5086657;28;20579;-72
2022/08/13 05:55:06;;;;;;;8.90;5.00;;;;;;;;;;5087458;28;20761;-73
2022/08/13 05:57:33;;;;;;;11.40;4.83;;;;;;;;;;5085919;28;20286;-73
2022/08/13 06:05:30;;;;;;;9.60;4.33;;;;;;;;;;5083782;28;20238;-73
2022/08/13 06:07:58;;;;;;;11.77;4.20;;;;;;;;;;5082103;28;20660;-73
2022/08/13 06:10:27;;;;;;;8.37;4.33;;;;;;;;;;5079980;28;20215;-73
2022/08/13 06:12:54;;;;;;;8.10;3.53;;;;;;;;;;5085242;28;20204;-73
2022/08/13 06:15:22;;;;;;;6.00;3.03;;;;;;;;;;5078029;28;20221;-73
2022/08/13 06:17:49;;;;;;;8.73;3.43;;;;;;;;;;5081295;28;20309;-73
2022/08/13 06:20:18;;;;;;;7.17;3.13;;;;;;;;;;5079879;28;20202;-72
2022/08/13 06:22:47;;;;;;;5.13;3.10;;;;;;;;;;5079274;28;20205;-73
2022/08/13 06:25:15;;;;;;;7.10;3.17;;;;;;;;;;5084077;28;20210;-73
2022/08/13 06:27:44;;;;;;;4.50;2.80;;;;;;;;;;5079756;28;20264;-73
2022/08/13 06:30:12;;;;;;;5.20;3.07;;;;;;;;;;5084047;28;20587;-73
2022/08/13 06:32:41;;;;;;;9.00;2.67;;;;;;;;;;5082286;28;20221;-73
2022/08/13 06:35:09;;;;;;;6.30;2.70;;;;;;;;;;5081388;28;20391;-73
2022/08/13 06:37:36;;;;;;;4.97;2.43;;;;;;;;;;5076310;28;20228;-73
2022/08/13 06:40:05;;;;;;;5.17;3.00;;;;;;;;;;5080965;28;20202;-73
2022/08/13 06:42:34;;;;;;;7.53;2.87;;;;;;;;;;5081386;28;20217;-73
2022/08/13 06:45:04;;;;;;;7.07;2.80;;;;;;;;;;5079630;28;20213;-73
2022/08/13 06:47:33;;;;;;;4.90;2.27;;;;;;;;;;5078902;28;20226;-73
2022/08/13 06:50:02;;;;;;;6.70;2.43;;;;;;;;;;5080652;28;20551;-73
2022/08/13 06:52:29;;;;;;;7.83;2.30;;;;;;;;;;5079520;28;20292;-73
2022/08/13 06:54:58;;;;;;;3.43;2.30;;;;;;;;;;5079145;28;20209;-73
2022/08/13 06:57:25;;;;;;;7.37;2.57;;;;;;;;;;5080023;28;20280;-73
2022/08/13 06:59:54;;;;;;;9.00;2.73;;;;;;;;;;5083696;28;20603;-73
2022/08/13 07:02:24;;;;;;;4.90;2.70;;;;;;;;;;5080337;28;20202;-73
2022/08/13 07:04:54;;;;;;;8.93;3.20;;;;;;;;;;5077552;28;20210;-73
2022/08/13 07:07:21;;;;;;;4.43;2.67;;;;;;;;;;5076501;28;20700;-73
2022/08/13 07:09:49;;;;;;;9.53;3.33;;;;;;;;;;5084569;28;20651;-73
2022/08/13 07:12:17;;;;;;;5.93;2.93;;;;;;;;;;5084207;28;20208;-73
2022/08/13 07:14:44;;;;;;;6.13;2.77;;;;;;;;;;5082256;28;20214;-74
2022/08/13 07:17:12;;;;;;;4.77;2.60;;;;;;;;;;5080907;28;20241;-73
2022/08/13 07:19:42;;;;;;;5.23;2.30;;;;;;;;;;5078433;28;20211;-73
2022/08/13 07:22:09;;;;;;;5.97;2.10;;;;;;;;;;5072146;28;20303;-73
2022/08/13 07:24:36;;;;;;;6.00;2.43;;;;;;;;;;5077099;28;20710;-73
2022/08/13 07:27:05;;;;;;;3.00;2.03;;;;;;;;;;5081024;28;20357;-73
2022/08/13 07:29:36;;;;;;;7.43;2.30;;;;;;;;;;5077808;28;20348;-73
2022/08/13 07:32:03;;;;;;;3.20;1.73;;;;;;;;;;5078959;28;20204;-73
2022/08/13 07:34:32;;;;;;;3.23;2.03;;;;;;;;;;5080513;28;20289;-73
2022/08/13 07:37:03;;;;;;;4.70;2.07;;;;;;;;;;5078704;28;20325;-73
2022/08/13 07:39:31;;;;;;;2.27;1.90;;;;;;;;;;5076205;28;20213;-72
2022/08/13 07:41:58;;;;;;;4.67;1.90;;;;;;;;;;5080423;28;20202;-73
2022/08/13 07:44:25;;;;;;;3.63;1.90;;;;;;;;;;5073227;28;20207;-73
2022/08/13 07:46:54;;;;;;;9.37;2.07;;;;;;;;;;5075763;28;20226;-73
2022/08/13 07:49:22;;;;;;;6.73;1.70;;;;;;;;;;5078047;28;20222;-73
2022/08/13 07:51:50;;;;;;;2.83;1.63;;;;;;;;;;5075457;28;20229;-73
2022/08/13 07:54:19;;;;;;;3.60;1.50;;;;;;;;;;5074529;28;20673;-73
2022/08/13 07:56:53;;;;;;;3.22;1.52;;;;;;;;;;5076003;28;20796;-73
2022/08/13 07:59:21;;;;;;;3.05;1.60;;;;;;;;;;5080487;28;20278;-73
2022/08/13 08:01:49;;;;;;;5.18;1.80;;;;;;;;;;5078385;28;20212;-73
2022/08/13 08:04:17;;;;;;;6.65;1.83;;;;;;;;;;5076264;28;20206;-73
2022/08/13 08:06:45;;;;;;;2.17;1.55;;;;;;;;;;5068178;28;20228;-73
2022/08/13 08:09:13;;;;;;;2.17;1.30;;;;;;;;;;5081927;28;20793;-73
2022/08/13 08:14:27;;;;;;;2.25;1.45;;;;;;;;;;5081749;28;20297;-73
2022/08/13 08:16:54;;;;;;;4.35;1.38;;;;;;;;;;5082543;28;20232;-73
2022/08/13 08:19:21;;;;;;;2.83;1.20;;;;;;;;;;5077613;28;21030;-71
2022/08/13 08:21:49;;;;;;;5.85;1.30;;;;;;;;;;5076351;28;20643;-71
2022/08/13 08:24:17;;;;;;;5.00;1.13;;;;;;;;;;5078941;28;20289;-71
2022/08/13 08:26:46;;;;;;;7.00;1.27;;;;;;;;;;5077424;28;21615;-71
2022/08/13 08:29:13;;;;;;;2.90;1.10;;;;;;;;;;5080251;28;20699;-71
2022/08/13 08:31:41;;;;;;;3.40;1.10;;;;;;;;;;5078573;28;20206;-71
2022/08/13 08:34:09;;;;;;;3.22;1.27;;;;;;;;;;5077572;28;20222;-71
2022/08/13 08:36:39;;;;;;;5.10;1.10;;;;;;;;;;5077778;28;20226;-71
2022/08/13 08:44:39;;;;;;;3.30;1.10;;;;;;;;;;5081373;28;20204;-71
2022/08/13 08:47:07;;;;;;;6.28;1.27;;;;;;;;;;5084232;28;20220;-71
2022/08/13 08:49:34;;;;;;;3.65;1.38;;;;;;;;;;5079111;28;20226;-73
2022/08/13 08:52:02;;;;;;;3.70;1.13;;;;;;;;;;5080076;28;20564;-73
2022/08/13 08:54:30;;;;;;;1.90;1.08;;;;;;;;;;5074760;28;20297;-73
2022/08/13 08:56:59;;;;;;;2.63;1.07;;;;;;;;;;5081363;28;20222;-73
2022/08/13 08:59:27;;;;;;;2.50;1.10;;;;;;;;;;5080643;28;20589;-73
2022/08/13 09:01:55;;;;;;;2.23;1.13;;;;;;;;;;5081761;28;20299;-73
2022/08/13 09:04:25;;;;;;;4.73;1.37;;;;;;;;;;5081628;28;20210;-73
2022/08/13 09:06:57;;;;;;;4.60;1.50;;;;;;;;;;5081597;28;20779;-73
2022/08/13 09:09:24;;;;;;;2.80;1.20;;;;;;;;;;5081584;28;20292;-73
2022/08/13 09:11:53;;;;;;;6.37;1.73;;;;;;;;;;5080754;28;20221;-73
2022/08/13 09:14:22;;;;;;;1.70;1.50;;;;;;;;;;5082125;28;20219;-73
2022/08/13 09:16:49;;;;;;;2.23;1.30;;;;;;;;;;5080742;28;20304;-72
2022/08/13 09:19:16;;;;;;;2.20;1.43;;;;;;;;;;5081951;28;20200;-73
2022/08/13 09:21:45;;;;;;;3.13;1.60;;;;;;;;;;5079913;28;20202;-73
2022/08/13 09:24:15;;;;;;;1.70;1.47;;;;;;;;;;5078040;28;20690;-72
2022/08/13 09:26:45;;;;;;;2.17;1.50;;;;;;;;;;5072746;28;20234;-73
2022/08/13 09:29:14;;;;;;;7.87;1.50;;;;;;;;;;5073879;28;20243;-73
2022/08/13 09:31:44;;;;;;;1.60;1.37;;;;;;;;;;5074706;28;20626;-73
2022/08/13 09:34:11;;;;;;;1.83;1.40;;;;;;;;;;5078812;28;20205;-72
2022/08/13 09:36:39;;;;;;;1.23;1.10;;;;;;;;;;5077314;28;20805;-72
2022/08/13 09:39:07;;;;;;;5.40;1.30;;;;;;;;;;5078348;28;20264;-73
2022/08/13 09:41:36;;;;;;;2.90;1.57;;;;;;;;;;5074432;28;20292;-72
2022/08/13 09:44:04;;;;;;;3.50;1.30;;;;;;;;;;5070848;28;20202;-72
2022/08/13 09:46:34;;;;;;;2.13;1.60;;;;;;;;;;5077755;28;20197;-72
2022/08/13 09:49:03;;;;;;;1.90;1.23;;;;;;;;;;5077663;28;20221;-73
2022/08/13 09:51:31;;;;;;;2.00;1.23;;;;;;;;;;5073365;28;20296;-72
2022/08/13 09:53:59;;;;;;;1.73;1.47;;;;;;;;;;5067158;28;20198;-72
2022/08/13 09:56:26;;;;;;;2.43;1.43;;;;;;;;;;5073192;28;20684;-72
2022/08/13 09:58:53;;;;;;;3.03;1.20;;;;;;;;;;5077443;28;20217;-73
2022/08/13 10:01:20;;;;;;;4.97;1.43;;;;;;;;;;5068120;28;20210;-72
2022/08/13 10:03:49;;;;;;;4.37;1.60;;;;;;;;;;5077133;28;20198;-72
2022/08/13 10:06:18;;;;;;;2.73;1.23;;;;;;;;;;5073740;28;20373;-73
2022/08/13 10:08:46;;;;;;;3.03;1.47;;;;;;;;;;5070515;28;20391;-73
2022/08/13 10:11:14;;;;;;;2.40;2.17;;;;;;;;;;5072845;28;20718;-72
2022/08/13 10:13:41;;;;;;;4.40;1.83;;;;;;;;;;5067309;28;20206;-73
2022/08/13 10:16:10;;;;;;;5.10;3.70;;;;;;;;;;5071110;28;20696;-72
2022/08/13 10:18:37;;;;;;;7.73;2.37;;;;;;;;;;5066898;28;20240;-72
2022/08/13 10:21:04;;;;;;;3.73;1.50;;;;;;;;;;5075887;28;20210;-72
2022/08/13 10:23:33;;;;;;;3.43;1.97;;;;;;;;;;5072257;28;20580;-72
2022/08/13 10:26:00;;;;;;;4.47;1.87;;;;;;;;;;5074405;28;20304;-72
2022/08/13 10:28:28;;;;;;;4.67;1.23;;;;;;;;;;5071582;28;20764;-73
2022/08/13 10:30:55;;;;;;;4.10;1.90;;;;;;;;;;5066343;28;20316;-72
2022/08/13 10:33:23;;;;;;;3.50;1.30;;;;;;;;;;5078582;28;20210;-72
2022/08/13 10:35:52;;;;;;;3.93;2.97;;;;;;;;;;5083165;28;20285;-72
2022/08/13 10:38:26;;;;;;;2.90;1.50;;;;;;;;;;5074486;28;20232;-72
2022/08/13 10:40:54;;;;;;;13.93;10.87;;;;;;;;;;5077415;28;20256;-73
2022/08/13 10:43:21;;;;;;;2.07;1.40;;;;;;;;;;5076334;28;20208;-72
2022/08/13 10:45:49;;;;;;;1.27;1.10;;;;;;;;;;5084068;28;20687;-72
2022/08/13 10:48:17;;;;;;;5.97;2.17;;;;;;;;;;5079360;28;20322;-72
2022/08/13 10:50:44;;;;;;;4.30;1.27;;;;;;;;;;5080814;28;20604;-72
2022/08/13 10:53:55;;;;;;;1.50;1.30;;;;;;;;;;5081759;28;20201;-72
2022/08/13 10:56:03;;;;;;;1.63;1.37;;;;;;;;;;5080064;28;20232;-72
2022/08/13 10:58:30;;;;;;;2.43;1.60;;;;;;;;;;5074815;28;20217;-72
2022/08/13 11:01:03;;;;;;;4.17;2.33;;;;;;;;;;5076608;28;20198;-72
2022/08/13 11:03:33;;;;;;;6.93;5.40;;;;;;;;;;5072755;28;20206;-72
2022/08/13 11:06:00;;;;;;;4.67;2.67;;;;;;;;;;5077937;28;21682;-72
2022/08/13 11:08:27;;;;;;;3.87;2.80;;;;;;;;;;5069014;28;20595;-73
2022/08/13 11:10:55;;;;;;;9.57;5.10;;;;;;;;;;5074963;28;20700;-72
2022/08/13 11:13:23;;;;;;;10.93;9.80;;;;;;;;;;5074018;28;20622;-72
2022/08/13 11:15:51;;;;;;;1.77;1.17;;;;;;;;;;5075137;28;20210;-73
2022/08/13 11:18:19;;;;;;;1.40;1.30;;;;;;;;;;5077239;28;20232;-72
2022/08/13 11:23:28;;;;;;;1.87;1.40;;;;;;;;;;5076587;28;20197;-73
2022/08/13 11:25:55;;;;;;;3.50;1.70;;;;;;;;;;5078037;28;20300;-72
2022/08/13 11:28:24;;;;;;;2.90;1.03;;;;;;;;;;5072958;28;20316;-72
2022/08/13 11:30:52;;;;;;;2.23;1.20;;;;;;;;;;5077849;28;20247;-72
2022/08/13 11:33:19;;;;;;;2.50;1.10;;;;;;;;;;5080177;28;20228;-72
2022/08/13 11:35:46;;;;;;;2.47;1.70;;;;;;;;;;5075966;28;20214;-72
2022/08/13 11:38:14;;;;;;;1.77;1.33;;;;;;;;;;5078981;28;20631;-72
2022/08/13 11:40:46;;;;;;;4.33;2.63;;;;;;;;;;5074986;28;20204;-72
2022/08/13 11:43:13;;;;;;;1.63;1.30;;;;;;;;;;5079772;28;20228;-72
2022/08/13 11:45:42;;;;;;;2.10;1.70;;;;;;;;;;5080865;28;20231;-72
2022/08/13 11:48:09;;;;;;;4.40;1.07;;;;;;;;;;5072890;28;20232;-72
2022/08/13 11:50:36;;;;;;;3.50;1.30;;;;;;;;;;5074053;28;20607;-73
2022/08/13 11:53:04;;;;;;;2.20;1.53;;;;;;;;;;5076685;28;20202;-72
2022/08/13 11:55:31;;;;;;;3.63;1.50;;;;;;;;;;5075062;28;20256;-72
2022/08/13 11:58:01;;;;;;;5.27;3.40;;;;;;;;;;5075647;28;20286;-73
2022/08/13 12:00:28;;;;;;;2.17;1.60;;;;;;;;;;5084038;28;20198;-72
2022/08/13 12:02:56;;;;;;;5.00;1.90;;;;;;;;;;5080769;28;20198;-73
2022/08/13 12:05:24;;;;;;;1.73;1.40;;;;;;;;;;5083103;28;20210;-72
2022/08/13 12:07:51;;;;;;;2.73;2.30;;;;;;;;;;5082319;28;20699;-72
2022/08/13 12:10:18;;;;;;;1.67;1.40;;;;;;;;;;5084846;28;20230;-72
2022/08/13 12:12:45;;;;;;;2.30;1.50;;;;;;;;;;5083714;28;20199;-72
2022/08/13 12:15:13;;;;;;;1.80;1.10;;;;;;;;;;5081913;28;20202;-72
2022/08/13 12:17:42;;;;;;;2.17;1.20;;;;;;;;;;5086685;28;20229;-72
2022/08/13 12:20:12;;;;;;;1.10;1.00;;;;;;;;;;5084753;28;20295;-73
2022/08/13 12:22:39;;;;;;;3.63;1.20;;;;;;;;;;5086836;28;20301;-72
2022/08/13 12:25:07;;;;;;;2.57;1.50;;;;;;;;;;5078079;28;20525;-73
2022/08/13 12:27:34;;;;;;;5.20;1.37;;;;;;;;;;5084960;28;20226;-72
2022/08/13 12:30:02;;;;;;;1.40;1.30;;;;;;;;;;5085919;28;20274;-72
2022/08/13 12:32:29;;;;;;;2.33;1.07;;;;;;;;;;5084636;28;20288;-72
2022/08/13 12:34:56;;;;;;;2.63;1.30;;;;;;;;;;5085159;28;20318;-72
2022/08/13 12:37:25;;;;;;;3.37;1.37;;;;;;;;;;5085747;28;20298;-73
2022/08/13 12:39:52;;;;;;;2.87;1.30;;;;;;;;;;5083762;28;20661;-73
2022/08/13 12:42:19;;;;;;;1.43;1.20;;;;;;;;;;5087051;28;20205;-73
2022/08/13 12:44:46;;;;;;;2.23;1.30;;;;;;;;;;5083699;28;20197;-73
2022/08/13 12:47:13;;;;;;;3.10;1.40;;;;;;;;;;5081133;28;20244;-73
2022/08/13 12:49:41;;;;;;;1.30;1.20;;;;;;;;;;5081489;28;20209;-73
2022/08/13 12:52:08;;;;;;;1.60;1.40;;;;;;;;;;5081185;28;20297;-73
2022/08/13 12:54:36;;;;;;;1.40;1.30;;;;;;;;;;5080384;28;20647;-72
2022/08/13 12:57:04;;;;;;;2.30;1.30;;;;;;;;;;5084034;28;20707;-73
2022/08/13 12:59:31;;;;;;;1.50;1.40;;;;;;;;;;5080710;28;20288;-73
2022/08/13 13:01:59;;;;;;;2.20;1.50;;;;;;;;;;5081202;28;20656;-73
2022/08/13 13:04:26;;;;;;;2.53;1.30;;;;;;;;;;5082553;28;20586;-72
2022/08/13 13:06:54;;;;;;;1.77;1.43;;;;;;;;;;5083388;28;20248;-73
2022/08/13 13:09:21;;;;;;;4.37;1.50;;;;;;;;;;5083582;28;20199;-73
2022/08/13 13:11:50;;;;;;;2.33;1.33;;;;;;;;;;5085592;28;20222;-72
2022/08/13 13:14:17;;;;;;;4.90;1.97;;;;;;;;;;5081355;28;20289;-73
2022/08/13 13:16:44;;;;;;;1.50;1.40;;;;;;;;;;5082921;28;20222;-73
2022/08/13 13:19:12;;;;;;;1.93;1.40;;;;;;;;;;5080156;28;20666;-73
2022/08/13 13:21:40;;;;;;;1.63;1.30;;;;;;;;;;5081243;28;20236;-72
2022/08/13 13:24:08;;;;;;;3.47;1.50;;;;;;;;;;5086043;28;20204;-73
2022/08/13 13:26:35;;;;;;;3.33;1.43;;;;;;;;;;5086064;28;20228;-73
2022/08/13 13:29:04;;;;;;;2.20;1.43;;;;;;;;;;5085112;28;20201;-72
2022/08/13 13:31:31;;;;;;;2.17;1.60;;;;;;;;;;5085002;28;20318;-73
2022/08/13 13:33:58;;;;;;;1.70;1.50;;;;;;;;;;5082709;28;20217;-73
2022/08/13 13:36:26;;;;;;;3.87;1.70;;;;;;;;;;5085350;28;20205;-73
2022/08/13 13:38:53;;;;;;;3.30;1.77;;;;;;;;;;5082075;28;20197;-72
2022/08/13 13:41:20;;;;;;;4.00;1.83;;;;;;;;;;5084719;28;20203;-73
2022/08/13 13:43:47;;;;;;;2.40;1.63;;;;;;;;;;5080804;28;20296;-72
2022/08/13 13:46:15;;;;;;;1.60;1.50;;;;;;;;;;5079626;28;20201;-72
2022/08/13 13:48:44;;;;;;;2.30;1.60;;;;;;;;;;5083760;28;20679;-73
2022/08/13 13:51:12;;;;;;;4.73;1.70;;;;;;;;;;5083129;28;20224;-73
2022/08/13 13:53:41;;;;;;;4.27;1.90;;;;;;;;;;5084656;28;20206;-73
2022/08/13 13:56:09;;;;;;;1.83;1.57;;;;;;;;;;5080044;28;20194;-73
2022/08/13 13:58:36;;;;;;;2.57;1.77;;;;;;;;;;5078332;28;20233;-73
2022/08/13 14:01:03;;;;;;;3.53;1.40;;;;;;;;;;5081862;28;20195;-72
2022/08/13 14:03:32;;;;;;;2.13;1.53;;;;;;;;;;5085558;28;20290;-73
2022/08/13 14:06:00;;;;;;;5.27;1.80;;;;;;;;;;5088853;28;20209;-73
2022/08/13 14:08:28;;;;;;;4.43;1.70;;;;;;;;;;5084452;28;20318;-72
2022/08/13 14:10:56;;;;;;;4.00;2.07;;;;;;;;;;5072484;28;20233;-73
2022/08/13 14:13:23;;;;;;;3.53;1.60;;;;;;;;;;5074506;28;20632;-73
2022/08/13 14:15:50;;;;;;;1.80;1.60;;;;;;;;;;5077049;28;20224;-72
2022/08/13 14:18:20;;;;;;;3.40;1.80;;;;;;;;;;5073030;28;20218;-73
2022/08/13 14:20:52;;;;;;;7.77;1.83;;;;;;;;;;5075684;28;20190;-73
2022/08/13 14:23:20;;;;;;;2.20;1.43;;;;;;;;;;5075682;28;20302;-72
2022/08/13 14:25:47;;;;;;;1.57;1.47;;;;;;;;;;5080524;28;20285;-73
2022/08/13 14:28:18;;;;;;;3.27;1.67;;;;;;;;;;5073602;28;20720;-73
2022/08/13 14:30:46;;;;;;;2.67;1.60;;;;;;;;;;5074595;28;20692;-72
2022/08/13 14:33:14;;;;;;;3.13;1.57;;;;;;;;;;5074920;28;20285;-73
2022/08/13 14:35:42;;;;;;;2.30;1.70;;;;;;;;;;5078575;28;20699;-73
2022/08/13 14:38:12;;;;;;;3.70;1.57;;;;;;;;;;5077001;28;20219;-72
2022/08/13 14:40:40;;;;;;;2.80;1.60;;;;;;;;;;5082465;28;20564;-73
2022/08/13 14:43:07;;;;;;;1.77;1.40;;;;;;;;;;5081327;28;20222;-73
2022/08/13 14:45:41;;;;;;;2.90;1.70;;;;;;;;;;5079755;28;20195;-72
2022/08/13 14:48:09;;;;;;;3.63;1.67;;;;;;;;;;5080535;28;20218;-72
2022/08/13 14:50:37;;;;;;;6.07;1.77;;;;;;;;;;5085122;28;20226;-73
2022/08/13 14:53:05;;;;;;;4.20;1.60;;;;;;;;;;5082738;28;20194;-73
2022/08/13 14:55:35;;;;;;;4.50;1.80;;;;;;;;;;5085644;28;20716;-72
2022/08/13 14:58:02;;;;;;;2.27;1.43;;;;;;;;;;5081304;28;20751;-73
2022/08/13 15:00:31;;;;;;;4.63;1.60;;;;;;;;;;5080678;28;20266;-72
2022/08/13 15:02:59;;;;;;;5.07;1.80;;;;;;;;;;5076495;28;20210;-73
2022/08/13 15:05:27;;;;;;;2.40;2.00;;;;;;;;;;5078194;28;20551;-72
2022/08/13 15:07:54;;;;;;;1.90;1.70;;;;;;;;;;5081064;28;20217;-72
2022/08/13 15:10:22;;;;;;;2.73;1.80;;;;;;;;;;5075570;28;20233;-72
2022/08/13 15:12:52;;;;;;;1.90;1.70;;;;;;;;;;5077649;28;20195;-73